Time;durP1;ratioP1;P1;durP2;ratioP2;P2;SDS_P1;SDS_P2;PMS_P1;PMS_P2;Temp;Humidity;BMP_temperature;BMP_pressure;BME280_temperature;BME280_humidity;BME280_pressure;Samples;Min_cycle;Max_cycle;Signal;HPM_P1;HPM_P2
2022/02/04 00:07:40;;;;;;;2.70;1.87;;;7.20;99.90;;;;;;5137384;27;20398;-59
2022/02/04 00:21:29;;;;;;;3.30;1.98;;;7.60;99.90;;;;;;5136491;27;20460;-59
2022/02/04 00:23:58;;;;;;;3.03;1.90;;;7.70;99.90;;;;;;5137126;27;20792;-59
2022/02/04 00:26:30;;;;;;;3.33;1.92;;;7.60;99.90;;;;;;5136938;27;20895;-58
2022/02/04 00:29:05;;;;;;;2.47;1.70;;;7.50;99.90;;;;;;5134988;27;20403;-58
2022/02/04 00:31:36;;;;;;;2.67;1.83;;;7.50;99.90;;;;;;5136767;27;20426;-59
2022/02/04 00:34:07;;;;;;;3.40;2.20;;;7.50;99.90;;;;;;5137137;27;20422;-58
2022/02/04 00:36:43;;;;;;;3.10;1.85;;;7.50;99.90;;;;;;5136344;27;20857;-63
2022/02/04 00:39:13;;;;;;;2.70;1.70;;;7.60;99.90;;;;;;5136406;27;20425;-59
2022/02/04 00:41:42;;;;;;;2.65;1.75;;;7.50;99.90;;;;;;5136713;27;20501;-58
2022/02/04 00:44:18;;;;;;;2.80;1.90;;;7.50;99.90;;;;;;5136978;27;20841;-58
2022/02/04 00:46:56;;;;;;;2.20;1.50;;;7.40;99.90;;;;;;5135800;27;20824;-59
2022/02/04 00:49:34;;;;;;;1.90;1.50;;;7.40;99.90;;;;;;5135759;27;20472;-59
2022/02/04 00:52:07;;;;;;;2.17;1.20;;;7.50;99.90;;;;;;5136130;27;20468;-58
2022/02/04 00:54:46;;;;;;;1.95;1.30;;;7.60;99.90;;;;;;5136435;27;20411;-59
2022/02/04 00:57:19;;;;;;;2.20;1.20;;;7.60;99.90;;;;;;5136076;27;20430;-59
2022/02/04 01:13:39;;;;;;;1.40;0.93;;;7.80;99.90;;;;;;5115840;28;20427;-59
2022/02/04 01:27:08;;;;;;;1.60;0.90;;;7.70;99.90;;;;;;5113148;28;20391;-59
2022/02/04 01:29:44;;;;;;;1.80;0.90;;;7.70;99.90;;;;;;5115060;28;20747;-59
2022/02/04 01:32:11;;;;;;;1.40;0.90;;;7.60;99.90;;;;;;5115202;28;20435;-58
2022/02/04 01:34:38;;;;;;;1.45;0.90;;;7.60;99.90;;;;;;5115128;28;20458;-59
2022/02/04 01:37:06;;;;;;;1.30;0.90;;;7.70;99.90;;;;;;5134464;27;20517;-59
2022/02/04 01:39:33;;;;;;;3.95;0.90;;;7.70;99.90;;;;;;5135449;27;20481;-59
2022/02/04 01:42:00;;;;;;;1.48;0.88;;;7.70;99.90;;;;;;5134157;27;20805;-58
2022/02/04 01:44:29;;;;;;;1.77;1.00;;;7.80;99.90;;;;;;5134089;27;20421;-59
2022/02/04 01:46:57;;;;;;;1.27;0.83;;;7.70;99.90;;;;;;5134653;27;20801;-59
2022/02/04 01:49:27;;;;;;;1.20;0.80;;;7.60;99.90;;;;;;5135717;27;20909;-58
2022/02/04 01:51:54;;;;;;;1.67;0.80;;;7.60;99.90;;;;;;5135300;27;20426;-58
2022/02/04 01:54:23;;;;;;;1.13;0.90;;;7.60;99.90;;;;;;5135885;27;20494;-59
2022/02/04 01:56:50;;;;;;;1.20;0.90;;;7.60;99.90;;;;;;5135668;28;20863;-59
2022/02/04 01:59:17;;;;;;;1.23;0.90;;;7.70;99.90;;;;;;5135944;28;20454;-59
2022/02/04 02:01:44;;;;;;;1.25;0.90;;;7.60;99.90;;;;;;5135056;28;20513;-58
2022/02/04 02:04:13;;;;;;;1.23;0.82;;;7.60;99.90;;;;;;5135577;28;20505;-59
2022/02/04 02:06:43;;;;;;;1.65;0.90;;;7.70;99.90;;;;;;5134520;28;20422;-58
2022/02/04 02:09:10;;;;;;;1.50;0.90;;;7.70;99.90;;;;;;5135890;28;20414;-58
2022/02/04 02:11:38;;;;;;;1.55;0.90;;;7.80;99.90;;;;;;5136070;28;20473;-59
2022/02/04 02:14:06;;;;;;;1.40;0.80;;;7.70;99.90;;;;;;5135161;28;20517;-59
2022/02/04 02:17:02;;;;;;;2.50;0.88;;;7.70;99.90;;;;;;5097671;28;20449;-58
2022/02/04 02:33:45;;;;;;;1.48;1.00;;;7.40;99.90;;;;;;5095914;28;20447;-59
2022/02/04 02:44:35;;;;;;;1.60;1.10;;;7.10;99.90;;;;;;5097921;28;20421;-59
2022/02/04 02:47:20;;;;;;;1.55;0.90;;;7.20;99.90;;;;;;5098198;28;20453;-59
2022/02/04 02:52:49;;;;;;;1.80;1.00;;;7.20;99.90;;;;;;5091739;28;20406;-59
2022/02/04 02:55:29;;;;;;;1.50;1.10;;;7.30;99.90;;;;;;5093548;28;20487;-59
2022/02/04 02:58:05;;;;;;;2.38;1.10;;;7.30;99.90;;;;;;5095491;28;20521;-58
2022/02/04 03:00:45;;;;;;;1.30;0.90;;;7.30;99.90;;;;;;5092329;28;20421;-58
2022/02/04 03:03:14;;;;;;;1.55;1.00;;;7.20;99.90;;;;;;5094706;28;20444;-58
2022/02/04 03:05:41;;;;;;;1.70;1.20;;;7.20;99.90;;;;;;5092661;28;20426;-59
2022/02/04 03:08:09;;;;;;;3.33;1.10;;;7.20;99.90;;;;;;5094506;28;20504;-59
2022/02/04 03:10:37;;;;;;;1.50;1.00;;;7.20;99.90;;;;;;5094321;28;20469;-58
2022/02/04 03:13:06;;;;;;;1.45;1.00;;;7.30;99.90;;;;;;5096358;28;20806;-59
2022/02/04 03:15:33;;;;;;;1.88;1.05;;;7.40;99.90;;;;;;5095290;28;20435;-58
2022/02/04 03:18:03;;;;;;;2.10;0.90;;;7.40;99.90;;;;;;5097023;28;20487;-59
2022/02/04 03:20:37;;;;;;;2.10;1.00;;;7.40;99.90;;;;;;5095769;28;20436;-58
2022/02/04 03:23:04;;;;;;;1.47;0.90;;;7.30;99.90;;;;;;5096354;28;20721;-58
2022/02/04 03:25:37;;;;;;;1.60;1.00;;;7.20;99.90;;;;;;5096843;28;20457;-58
2022/02/04 03:28:12;;;;;;;1.30;0.90;;;7.20;99.90;;;;;;5095533;28;20499;-58
2022/02/04 03:30:42;;;;;;;1.20;0.90;;;7.20;99.90;;;;;;5095254;28;20845;-58
2022/02/04 03:33:10;;;;;;;1.73;1.00;;;7.30;99.90;;;;;;5096523;28;20417;-60
2022/02/04 03:35:37;;;;;;;1.30;0.90;;;7.40;99.90;;;;;;5095722;28;20533;-60
2022/02/04 03:38:04;;;;;;;1.60;1.00;;;7.30;99.90;;;;;;5095226;28;20433;-57
2022/02/04 03:40:32;;;;;;;1.35;0.90;;;7.30;99.90;;;;;;5094537;28;20417;-57
2022/02/04 03:42:59;;;;;;;2.07;1.03;;;7.20;99.90;;;;;;5095856;28;20786;-57
2022/02/04 03:45:27;;;;;;;1.50;0.90;;;7.10;99.90;;;;;;5096477;28;20903;-57
2022/02/04 03:47:54;;;;;;;1.20;0.90;;;7.00;99.90;;;;;;5097052;28;20500;-57
2022/02/04 03:50:21;;;;;;;2.05;1.00;;;6.90;99.90;;;;;;5095637;28;20432;-58
2022/02/04 03:52:48;;;;;;;1.70;1.00;;;6.80;99.90;;;;;;5096694;28;20424;-58
2022/02/04 03:55:15;;;;;;;2.00;1.20;;;6.80;99.90;;;;;;5095152;28;20430;-57
2022/02/04 03:57:42;;;;;;;1.80;1.10;;;6.70;99.90;;;;;;5096568;28;20426;-57
2022/02/04 04:00:12;;;;;;;1.80;1.20;;;6.70;99.90;;;;;;5096106;28;20426;-57
2022/02/04 04:02:40;;;;;;;1.80;1.20;;;6.60;99.90;;;;;;5097233;28;20801;-57
2022/02/04 04:05:08;;;;;;;1.85;1.13;;;6.60;99.90;;;;;;5095418;28;20516;-57
2022/02/04 04:07:41;;;;;;;1.80;1.13;;;6.60;99.90;;;;;;5095183;28;20509;-57
2022/02/04 04:10:12;;;;;;;1.80;1.10;;;6.70;99.90;;;;;;5096108;28;20841;-58
2022/02/04 04:12:39;;;;;;;1.98;1.10;;;6.70;99.90;;;;;;5096839;28;20424;-57
2022/02/04 04:15:08;;;;;;;2.00;1.10;;;6.70;99.90;;;;;;5095749;28;20512;-57
2022/02/04 04:17:38;;;;;;;2.20;1.10;;;6.70;99.90;;;;;;5096653;28;20473;-58
2022/02/04 04:20:09;;;;;;;1.77;1.10;;;6.80;99.90;;;;;;5095806;28;20465;-57
2022/02/04 04:22:35;;;;;;;3.17;1.10;;;6.70;99.90;;;;;;5096506;28;20855;-58
2022/02/04 04:25:03;;;;;;;3.50;1.20;;;6.70;99.90;;;;;;5095573;28;20485;-58
2022/02/04 04:27:30;;;;;;;2.00;1.20;;;6.70;99.90;;;;;;5095243;28;20810;-58
2022/02/04 04:29:57;;;;;;;1.60;1.20;;;6.70;99.90;;;;;;5095596;28;20521;-58
2022/02/04 04:32:24;;;;;;;2.10;1.15;;;6.60;99.90;;;;;;5096574;28;20425;-57
2022/02/04 04:34:51;;;;;;;1.90;1.10;;;6.60;99.90;;;;;;5095547;28;20709;-57
2022/02/04 04:37:20;;;;;;;1.80;1.00;;;6.60;99.90;;;;;;5096125;28;20508;-57
2022/02/04 04:39:56;;;;;;;2.17;1.20;;;6.60;99.90;;;;;;5094454;28;20458;-58
2022/02/04 04:42:36;;;;;;;1.60;1.00;;;6.60;99.90;;;;;;5096173;28;20414;-58
2022/02/04 04:45:24;;;;;;;1.70;1.00;;;6.50;99.90;;;;;;5095418;28;20476;-56
2022/02/04 05:26:58;;;;;;;1.88;1.20;;;6.50;99.90;;;;;;5094400;28;20768;-57
2022/02/04 05:29:25;;;;;;;1.92;1.10;;;6.50;99.90;;;;;;5095881;28;20756;-57
2022/02/04 05:31:52;;;;;;;1.40;0.90;;;6.50;99.90;;;;;;5094353;28;20431;-57
2022/02/04 05:34:20;;;;;;;1.70;1.20;;;6.50;99.90;;;;;;5094844;28;20778;-57
2022/02/04 05:36:49;;;;;;;1.60;1.00;;;6.50;99.90;;;;;;5093840;28;20764;-58
2022/02/04 05:39:23;;;;;;;1.80;1.10;;;6.50;99.90;;;;;;5095446;28;20437;-57
2022/02/04 05:41:51;;;;;;;1.90;1.00;;;6.50;99.90;;;;;;5094361;28;20466;-58
2022/02/04 05:44:18;;;;;;;2.00;1.10;;;6.40;99.90;;;;;;5095198;28;20423;-55
2022/02/04 05:46:51;;;;;;;1.80;1.20;;;6.40;99.90;;;;;;5094122;28;20479;-57
2022/02/04 05:49:21;;;;;;;1.73;1.10;;;6.40;99.90;;;;;;5094049;28;20429;-57
2022/02/04 05:51:56;;;;;;;1.60;1.10;;;6.30;99.90;;;;;;5093937;28;20441;-57
2022/02/04 05:54:36;;;;;;;1.80;1.10;;;6.30;99.90;;;;;;5094546;28;20449;-57
2022/02/04 05:57:10;;;;;;;2.50;1.20;;;6.20;99.90;;;;;;5094346;28;20453;-57
2022/02/04 05:59:58;;;;;;;1.73;1.10;;;6.20;99.90;;;;;;5093137;28;20426;-58
2022/02/04 06:02:31;;;;;;;1.85;1.20;;;6.20;99.90;;;;;;5094991;28;20410;-57
2022/02/04 06:05:06;;;;;;;2.30;1.10;;;6.20;99.90;;;;;;5092292;28;20453;-56
2022/02/04 06:07:51;;;;;;;2.08;1.15;;;6.20;99.90;;;;;;5094597;28;20516;-56
2022/02/04 06:10:38;;;;;;;1.70;1.10;;;6.10;99.90;;;;;;5092965;28;20486;-56
2022/02/04 06:13:29;;;;;;;2.05;1.23;;;6.10;99.90;;;;;;5094950;28;20422;-55
2022/02/04 06:24:09;;;;;;;1.90;1.10;;;6.00;99.90;;;;;;5094183;28;20735;-54
2022/02/04 06:26:36;;;;;;;2.67;1.20;;;6.00;99.90;;;;;;5092931;28;20524;-56
2022/02/04 06:29:04;;;;;;;3.10;1.40;;;6.00;99.90;;;;;;5094326;28;20406;-55
2022/02/04 06:31:31;;;;;;;2.05;1.20;;;5.90;99.90;;;;;;5093347;28;20429;-58
2022/02/04 06:34:01;;;;;;;1.70;1.20;;;5.90;99.90;;;;;;5092464;28;20420;-54
2022/02/04 06:36:28;;;;;;;1.90;1.40;;;5.90;99.90;;;;;;5087734;28;20433;-53
2022/02/04 06:38:55;;;;;;;2.70;1.20;;;5.90;99.90;;;;;;5090437;28;20444;-57
2022/02/04 06:41:24;;;;;;;2.50;1.50;;;5.90;99.90;;;;;;5090235;28;20518;-56
2022/02/04 06:43:51;;;;;;;1.80;1.20;;;5.90;99.90;;;;;;5091772;28;20417;-55
2022/02/04 06:46:19;;;;;;;2.10;1.38;;;6.00;99.90;;;;;;5091467;28;20521;-55
2022/02/04 06:48:53;;;;;;;3.05;1.40;;;6.10;99.90;;;;;;5093345;28;20449;-56
2022/02/04 06:51:22;;;;;;;2.10;1.40;;;6.10;99.90;;;;;;5092759;28;20430;-53
2022/02/04 06:53:48;;;;;;;3.78;1.42;;;6.10;99.90;;;;;;5093560;28;20422;-55
2022/02/04 06:56:15;;;;;;;2.13;1.40;;;6.10;99.90;;;;;;5092263;28;20508;-56
2022/02/04 06:58:43;;;;;;;1.70;1.20;;;6.00;99.90;;;;;;5092745;28;20465;-56
2022/02/04 07:01:10;;;;;;;2.00;1.30;;;6.00;99.90;;;;;;5091582;28;20430;-52
2022/02/04 07:03:38;;;;;;;2.85;1.40;;;6.00;99.90;;;;;;5093418;28;20722;-56
2022/02/04 07:06:06;;;;;;;2.40;1.30;;;6.00;99.90;;;;;;5094592;28;20454;-55
2022/02/04 07:08:40;;;;;;;2.60;1.20;;;6.00;99.90;;;;;;5095032;28;20817;-55
2022/02/04 07:11:24;;;;;;;1.80;1.20;;;6.00;99.90;;;;;;5094629;28;20514;-55
2022/02/04 07:14:06;;;;;;;2.10;1.20;;;6.00;99.90;;;;;;5094592;28;20776;-55
2022/02/04 07:16:37;;;;;;;1.70;1.20;;;6.00;99.90;;;;;;5091767;28;20436;-54
2022/02/04 07:21:50;;;;;;;1.70;1.10;;;6.10;99.90;;;;;;5093137;28;20409;-54
2022/02/04 07:24:17;;;;;;;2.00;1.30;;;6.00;99.90;;;;;;5095056;28;20418;-56
2022/02/04 07:26:44;;;;;;;2.30;1.13;;;5.90;99.90;;;;;;5094394;28;20728;-55
2022/02/04 07:29:11;;;;;;;1.70;1.10;;;5.90;99.90;;;;;;5093167;28;20708;-55
2022/02/04 07:31:41;;;;;;;1.90;1.10;;;6.00;99.90;;;;;;5092105;28;20441;-54
2022/02/04 07:34:18;;;;;;;1.83;1.20;;;6.30;99.90;;;;;;5094744;28;20425;-55
2022/02/04 07:42:16;;;;;;;1.60;1.00;;;6.30;99.90;;;;;;5092810;28;20469;-56
2022/02/04 07:44:43;;;;;;;2.40;1.20;;;6.30;99.90;;;;;;5091920;28;20450;-53
2022/02/04 07:47:12;;;;;;;1.50;1.10;;;6.40;99.90;;;;;;5094241;28;20794;-54
2022/02/04 07:49:40;;;;;;;2.15;1.20;;;6.50;99.90;;;;;;5092192;28;21038;-56
2022/02/04 07:52:07;;;;;;;1.58;0.90;;;6.50;99.90;;;;;;5092095;28;20446;-55
2022/02/04 07:54:34;;;;;;;1.90;1.23;;;6.50;99.90;;;;;;5091716;28;20548;-56
2022/02/04 07:57:01;;;;;;;1.60;1.05;;;6.60;99.90;;;;;;5091466;28;20723;-57
2022/02/04 07:59:28;;;;;;;5.03;3.58;;;6.70;99.90;;;;;;5091152;28;20525;-55
2022/02/04 08:01:54;;;;;;;2.00;1.10;;;6.60;99.90;;;;;;5091038;28;20787;-55
2022/02/04 08:04:25;;;;;;;1.80;1.00;;;6.50;99.90;;;;;;5092773;28;20489;-55
2022/02/04 08:06:58;;;;;;;1.40;1.00;;;6.50;99.90;;;;;;5092799;28;20916;-55
2022/02/04 08:09:36;;;;;;;3.97;1.23;;;6.40;99.90;;;;;;5095706;28;20971;-56
2022/02/04 08:12:10;;;;;;;1.88;1.05;;;6.40;99.90;;;;;;5093334;28;20456;-55
2022/02/04 08:14:57;;;;;;;3.10;1.40;;;6.40;99.90;;;;;;5091496;28;20887;-56
2022/02/04 08:18:01;;;;;;;2.60;1.50;;;6.30;99.90;;;;;;5094314;28;20479;-56
2022/02/04 08:20:50;;;;;;;3.10;1.63;;;6.20;99.90;;;;;;5093385;28;20434;-56
2022/02/04 08:27:00;;;;;;;2.85;1.45;;;6.00;99.90;;;;;;5111483;27;20354;-57
2022/02/04 08:29:52;;;;;;;2.00;1.30;;;6.00;99.90;;;;;;5110932;28;20428;-57
2022/02/04 08:32:31;;;;;;;2.53;1.40;;;6.20;99.90;;;;;;5111205;28;20432;-56
2022/02/04 08:35:12;;;;;;;4.20;1.80;;;6.20;99.90;;;;;;5107491;28;20833;-57
2022/02/04 08:38:17;;;;;;;2.50;1.60;;;6.20;99.90;;;;;;5108611;28;20516;-57
2022/02/04 08:46:54;;;;;;;3.67;1.52;;;6.30;99.90;;;;;;5109133;28;20859;-56
2022/02/04 08:49:35;;;;;;;4.95;1.60;;;6.30;99.90;;;;;;5111035;28;20442;-57
2022/02/04 08:54:58;;;;;;;2.60;1.20;;;6.90;99.90;;;;;;5086791;28;20401;-57
2022/02/04 08:57:38;;;;;;;2.05;1.38;;;7.00;99.90;;;;;;5109309;28;20417;-56
2022/02/04 09:00:20;;;;;;;2.00;1.20;;;6.90;99.90;;;;;;5109222;28;20432;-56
2022/02/04 09:02:56;;;;;;;2.20;1.10;;;7.00;99.90;;;;;;5110288;28;20463;-55
2022/02/04 09:05:38;;;;;;;2.70;1.20;;;7.10;99.90;;;;;;5109259;28;20808;-57
2022/02/04 09:08:20;;;;;;;1.90;1.10;;;7.30;99.90;;;;;;5110422;28;20458;-56
2022/02/04 09:10:52;;;;;;;1.80;1.10;;;7.30;99.90;;;;;;5109444;28;20429;-57
2022/02/04 09:19:00;;;;;;;1.50;1.08;;;7.40;99.90;;;;;;5108928;28;20404;-57
2022/02/04 09:24:07;;;;;;;1.80;1.02;;;7.40;99.90;;;;;;5076557;28;20828;-57
2022/02/04 09:26:39;;;;;;;2.20;1.30;;;7.50;99.90;;;;;;5110979;28;20464;-56
2022/02/04 09:29:06;;;;;;;1.83;1.10;;;7.40;99.90;;;;;;5109733;28;20736;-57
2022/02/04 09:31:36;;;;;;;3.17;1.08;;;7.30;99.90;;;;;;5110137;28;20506;-57
2022/02/04 09:34:03;;;;;;;4.28;2.10;;;7.30;99.90;;;;;;5109369;28;20520;-54
2022/02/04 09:36:30;;;;;;;3.67;2.10;;;7.30;99.90;;;;;;5103566;28;20493;-56
2022/02/04 09:38:58;;;;;;;2.03;1.08;;;7.40;99.90;;;;;;5093002;28;20786;-56
2022/02/04 09:41:25;;;;;;;7.33;4.40;;;7.30;99.90;;;;;;5095744;28;20425;-58
2022/02/04 09:43:52;;;;;;;3.70;2.47;;;7.30;99.90;;;;;;5093657;28;20421;-58
2022/02/04 09:46:20;;;;;;;3.33;1.10;;;7.30;99.90;;;;;;5094393;28;20429;-57
2022/02/04 09:48:53;;;;;;;1.90;1.00;;;7.20;99.90;;;;;;5094834;28;20449;-57
2022/02/04 09:51:27;;;;;;;1.40;0.90;;;7.20;99.90;;;;;;5096641;28;20483;-58
2022/02/04 10:08:21;;;;;;;1.23;0.70;;;7.70;99.90;;;;;;5095101;28;20761;-58
2022/02/04 10:14:09;;;;;;;1.75;0.60;;;8.00;99.90;;;;;;5091979;28;20515;-58
2022/02/04 10:17:04;;;;;;;1.00;0.60;;;8.20;99.90;;;;;;5093884;28;20413;-58
2022/02/04 10:19:35;;;;;;;1.40;0.70;;;8.20;58.70;;;;;;5092538;28;20410;-58
2022/02/04 10:22:09;;;;;;;1.00;0.60;;;8.20;99.90;;;;;;5092198;28;20426;-56
2022/02/04 10:24:38;;;;;;;1.08;0.65;;;8.20;74.00;;;;;;5092427;28;20465;-57
2022/02/04 10:27:17;;;;;;;1.10;0.70;;;8.10;88.90;;;;;;5092091;28;20498;-53
2022/02/04 10:29:51;;;;;;;0.95;0.60;;;8.40;99.40;;;;;;5093796;28;20421;-54
2022/02/04 10:32:23;;;;;;;0.90;0.60;;;8.60;72.60;;;;;;5090119;28;20453;-53
2022/02/04 10:35:00;;;;;;;1.10;0.60;;;8.70;63.40;;;;;;5093270;28;20457;-52
2022/02/04 10:37:31;;;;;;;0.75;0.50;;;8.50;30.70;;;;;;5091467;28;20929;-54
2022/02/04 10:40:09;;;;;;;0.80;0.60;;;8.40;64.60;;;;;;5092833;28;20479;-56
2022/02/04 10:42:44;;;;;;;0.93;0.40;;;8.50;40.60;;;;;;5090360;28;20660;-55
2022/02/04 10:59:32;;;;;;;0.60;0.30;;;8.70;14.10;;;;;;5147976;27;20406;-53
2022/02/04 11:02:09;;;;;;;0.60;0.30;;;8.60;14.10;;;;;;5161227;27;20420;-54
2022/02/04 11:04:47;;;;;;;0.73;0.30;;;8.50;3.10;;;;;;5173025;27;20423;-57
2022/02/04 11:07:36;;;;;;;0.70;0.50;;;8.40;14.40;;;;;;5171991;27;20500;-57
2022/02/04 11:10:18;;;;;;;1.00;0.50;;;8.30;16.10;;;;;;5171542;27;20408;-54
2022/02/04 11:35:21;;;;;;;1.90;0.80;;;8.90;1.00;;;;;;5151349;27;20405;-53
2022/02/04 11:43:50;;;;;;;1.00;0.60;;;9.10;1.00;;;;;;5170323;27;20420;-59
2022/02/04 11:50:01;;;;;;;0.98;0.63;;;8.90;7.70;;;;;;5127627;27;20397;-58
2022/02/04 11:52:34;;;;;;;0.80;0.50;;;9.00;1.00;;;;;;5160449;27;20998;-58
2022/02/04 11:55:02;;;;;;;0.70;0.40;;;8.90;1.00;;;;;;5146367;27;20863;-58
2022/02/04 11:57:30;;;;;;;0.80;0.50;;;8.80;1.00;;;;;;5149974;27;20904;-59
2022/02/04 12:00:05;;;;;;;0.70;0.40;;;8.90;1.00;;;;;;5148625;27;20441;-58
2022/02/04 12:02:37;;;;;;;0.60;0.40;;;9.00;1.00;;;;;;5149150;27;20418;-58
2022/02/04 12:05:32;;;;;;;0.50;0.30;;;9.20;1.00;;;;;;5135217;27;20439;-58
2022/02/04 12:08:25;;;;;;;0.63;0.40;;;9.10;1.00;;;;;;5135608;27;20433;-57
2022/02/04 12:10:54;;;;;;;1.10;0.40;;;8.90;1.00;;;;;;5112262;28;20412;-59
2022/02/04 12:13:22;;;;;;;0.50;0.30;;;8.90;1.00;;;;;;5132850;27;20520;-56
2022/02/04 12:15:55;;;;;;;1.50;0.40;;;8.60;1.00;;;;;;5156570;27;20507;-57
2022/02/04 12:18:26;;;;;;;0.83;0.40;;;8.40;1.00;;;;;;5154334;27;20416;-57
2022/02/04 12:21:04;;;;;;;1.00;0.30;;;8.30;4.80;;;;;;5152638;27;20525;-57
2022/02/04 12:23:44;;;;;;;1.40;0.30;;;8.30;8.10;;;;;;5133388;27;20721;-55
2022/02/04 12:26:17;;;;;;;0.70;0.30;;;8.30;4.80;;;;;;5132083;27;20410;-58
2022/02/04 12:28:47;;;;;;;0.65;0.40;;;8.40;16.60;;;;;;5134875;27;20454;-58
2022/02/04 12:31:20;;;;;;;1.00;0.40;;;8.40;5.40;;;;;;5135918;27;20419;-58
2022/02/04 12:33:49;;;;;;;1.13;0.50;;;8.50;1.00;;;;;;5132848;27;20435;-59
2022/02/04 12:36:21;;;;;;;0.40;0.30;;;8.50;1.00;;;;;;5134125;27;20454;-55
2022/02/04 12:38:50;;;;;;;0.60;0.30;;;8.50;1.00;;;;;;5130409;27;20513;-55
2022/02/04 12:41:22;;;;;;;0.70;0.40;;;8.50;1.00;;;;;;5132733;27;20876;-57
2022/02/04 12:43:52;;;;;;;0.60;0.30;;;8.60;1.00;;;;;;5132766;27;20757;-58
2022/02/04 12:46:22;;;;;;;0.77;0.40;;;8.50;1.00;;;;;;5134915;27;20508;-57
2022/02/04 12:48:56;;;;;;;0.50;0.30;;;8.50;1.00;;;;;;5133792;27;20426;-56
2022/02/04 12:51:48;;;;;;;0.70;0.30;;;8.50;1.00;;;;;;5135355;27;20410;-58
2022/02/04 12:54:27;;;;;;;0.50;0.30;;;8.60;1.00;;;;;;5134319;27;20423;-58
2022/02/04 12:57:28;;;;;;;1.10;0.40;;;8.60;1.00;;;;;;5133935;27;20406;-56
2022/02/04 13:00:01;;;;;;;0.80;0.30;;;8.60;1.00;;;;;;5132364;27;21225;-57
2022/02/04 13:08:09;;;;;;;0.87;0.40;;;8.90;1.00;;;;;;5133297;27;20435;-58
2022/02/04 13:10:36;;;;;;;0.70;0.30;;;8.90;1.00;;;;;;5134600;27;20598;-58
2022/02/04 13:13:05;;;;;;;0.80;0.30;;;8.80;1.00;;;;;;5133738;27;20431;-58
2022/02/04 13:15:34;;;;;;;1.20;0.80;;;8.60;1.00;;;;;;5132607;27;20509;-58
2022/02/04 13:18:06;;;;;;;1.00;0.70;;;8.60;1.00;;;;;;5131346;27;20815;-55
2022/02/04 13:20:34;;;;;;;3.03;0.80;;;8.50;1.00;;;;;;5132621;27;20857;-58
2022/02/04 13:23:07;;;;;;;0.70;0.40;;;8.50;1.00;;;;;;5131881;27;20797;-53
2022/02/04 13:25:35;;;;;;;0.57;0.30;;;8.50;1.00;;;;;;5132335;27;20508;-56
2022/02/04 13:28:12;;;;;;;0.50;0.30;;;8.30;1.00;;;;;;5132438;27;20521;-54
2022/02/04 13:30:42;;;;;;;0.80;0.30;;;8.30;1.00;;;;;;5131829;27;20418;-52
2022/02/04 13:33:22;;;;;;;0.77;0.40;;;8.30;1.00;;;;;;5133742;27;20423;-52
2022/02/04 13:35:56;;;;;;;0.50;0.30;;;8.30;1.00;;;;;;5133377;27;20505;-55
2022/02/04 13:38:30;;;;;;;0.60;0.40;;;8.40;1.00;;;;;;5131083;27;20673;-55
2022/02/04 13:41:08;;;;;;;0.60;0.30;;;8.40;1.00;;;;;;5133164;27;20527;-57
2022/02/04 13:43:43;;;;;;;0.50;0.30;;;8.40;1.00;;;;;;5134836;27;20418;-57
2022/02/04 13:46:21;;;;;;;0.50;0.30;;;8.40;1.00;;;;;;5135275;27;20471;-55
2022/02/04 13:49:04;;;;;;;0.70;0.30;;;8.30;1.00;;;;;;5133827;27;20426;-58
2022/02/04 13:51:56;;;;;;;0.70;0.30;;;8.40;1.00;;;;;;5132778;27;20422;-56
2022/02/04 13:57:19;;;;;;;0.60;0.30;;;8.60;1.00;;;;;;5125195;27;20717;-57
2022/02/04 14:00:06;;;;;;;1.45;0.30;;;8.50;1.00;;;;;;5133733;27;20411;-56
2022/02/04 14:02:40;;;;;;;0.80;0.30;;;8.40;1.00;;;;;;5132737;27;20785;-55
2022/02/04 14:05:10;;;;;;;0.88;0.30;;;8.40;1.00;;;;;;5133513;27;20737;-56
2022/02/04 14:07:42;;;;;;;0.50;0.30;;;8.40;1.00;;;;;;5131679;27;20414;-53
2022/02/04 14:10:17;;;;;;;1.10;0.30;;;8.30;1.00;;;;;;5130892;27;20718;-56
2022/02/04 14:12:44;;;;;;;0.93;0.30;;;8.40;1.00;;;;;;5132562;27;20584;-53
2022/02/04 14:15:11;;;;;;;0.45;0.22;;;8.50;1.00;;;;;;5132589;27;20505;-54
2022/02/04 14:17:39;;;;;;;0.40;0.20;;;8.60;1.00;;;;;;5133228;27;20438;-56
2022/02/04 14:20:08;;;;;;;0.50;0.40;;;8.50;1.00;;;;;;5133650;27;20412;-56
2022/02/04 14:22:35;;;;;;;0.50;0.30;;;8.50;1.00;;;;;;5133365;27;20786;-55
2022/02/04 14:25:04;;;;;;;0.40;0.30;;;8.50;1.00;;;;;;5132743;27;21107;-54
2022/02/04 14:27:34;;;;;;;1.10;0.30;;;8.50;1.00;;;;;;5130895;27;20450;-54
2022/02/04 14:30:14;;;;;;;0.60;0.30;;;8.50;1.00;;;;;;5132162;27;20411;-54
2022/02/04 14:32:51;;;;;;;0.60;0.30;;;8.60;1.00;;;;;;5132229;27;20517;-56
2022/02/04 14:35:27;;;;;;;0.60;0.30;;;8.50;1.00;;;;;;5133249;27;20760;-59
2022/02/04 14:49:17;;;;;;;1.40;0.68;;;8.40;1.00;;;;;;5134025;27;20837;-59
2022/02/04 14:51:59;;;;;;;0.50;0.30;;;8.20;1.00;;;;;;5131059;28;20437;-59
2022/02/04 14:54:34;;;;;;;0.50;0.20;;;8.20;1.00;;;;;;5131017;28;20430;-54
2022/02/04 15:02:42;;;;;;;0.40;0.20;;;8.60;1.00;;;;;;5129286;28;20478;-57
2022/02/04 15:05:12;;;;;;;0.50;0.30;;;8.50;1.00;;;;;;5130671;28;20468;-56
2022/02/04 15:07:41;;;;;;;0.50;0.30;;;8.40;1.00;;;;;;5130120;27;20521;-56
2022/02/04 15:10:14;;;;;;;1.00;0.22;;;8.30;1.00;;;;;;5129362;27;20410;-57
2022/02/04 15:12:43;;;;;;;0.90;0.32;;;8.50;1.00;;;;;;5130854;27;20441;-57
2022/02/04 15:15:10;;;;;;;0.98;0.40;;;8.50;1.00;;;;;;5131754;28;20941;-52
2022/02/04 15:17:37;;;;;;;0.40;0.20;;;8.60;1.00;;;;;;5133125;28;21010;-55
2022/02/04 15:20:07;;;;;;;0.45;0.20;;;8.50;1.00;;;;;;5133411;28;20437;-55
2022/02/04 15:22:34;;;;;;;0.30;0.20;;;8.30;1.00;;;;;;5133502;27;20425;-57
2022/02/04 15:25:11;;;;;;;0.50;0.20;;;8.20;1.00;;;;;;5132918;28;20517;-54
2022/02/04 15:27:42;;;;;;;0.50;0.20;;;8.10;1.00;;;;;;5132508;27;20418;-52
2022/02/04 15:30:11;;;;;;;2.27;0.30;;;8.10;1.00;;;;;;5130718;28;20485;-56
2022/02/04 15:32:38;;;;;;;0.60;0.40;;;8.10;1.00;;;;;;5132238;28;20475;-53
2022/02/04 15:35:06;;;;;;;2.75;0.30;;;8.10;1.00;;;;;;5131850;28;20687;-53
2022/02/04 15:37:33;;;;;;;0.80;0.20;;;8.10;1.00;;;;;;5132489;27;20493;-54
2022/02/04 15:39:59;;;;;;;0.50;0.30;;;8.30;1.00;;;;;;5132529;27;20441;-55
2022/02/04 15:42:33;;;;;;;1.30;0.30;;;8.40;1.00;;;;;;5132967;27;20414;-53
2022/02/04 15:45:15;;;;;;;0.50;0.20;;;8.30;1.00;;;;;;5132695;27;20434;-55
2022/02/04 15:47:55;;;;;;;0.50;0.30;;;8.30;1.00;;;;;;5133341;27;20410;-59
2022/02/04 15:50:32;;;;;;;0.50;0.20;;;8.20;1.00;;;;;;5126166;27;20430;-56
2022/02/04 15:58:56;;;;;;;0.45;0.20;;;8.20;1.00;;;;;;5130612;27;20414;-53
2022/02/04 16:01:31;;;;;;;0.50;0.20;;;8.20;1.00;;;;;;5133827;27;20521;-55
2022/02/04 16:04:17;;;;;;;0.40;0.20;;;8.10;1.00;;;;;;5142177;27;20408;-55
2022/02/04 16:06:46;;;;;;;0.60;0.30;;;8.00;1.00;;;;;;5158443;27;20929;-54
2022/02/04 16:09:14;;;;;;;0.40;0.20;;;8.00;1.00;;;;;;5158107;27;20419;-51
2022/02/04 16:11:53;;;;;;;0.60;0.30;;;7.90;1.00;;;;;;5158175;27;20413;-56
2022/02/04 16:14:26;;;;;;;0.60;0.30;;;7.90;1.00;;;;;;5138351;27;20434;-56
2022/02/04 16:16:57;;;;;;;0.52;0.20;;;8.10;1.00;;;;;;5131672;27;20422;-53
2022/02/04 16:19:29;;;;;;;0.47;0.20;;;8.00;1.00;;;;;;5134443;27;20438;-54
2022/02/04 16:22:12;;;;;;;0.50;0.20;;;7.80;1.00;;;;;;5136866;27;20519;-53
2022/02/04 16:30:16;;;;;;;0.50;0.30;;;8.00;1.00;;;;;;5099482;27;20398;-56
2022/02/04 16:32:43;;;;;;;0.60;0.30;;;8.00;1.00;;;;;;5141878;27;20524;-56
2022/02/04 16:35:11;;;;;;;0.90;0.40;;;8.10;1.00;;;;;;5130959;27;20426;-57
2022/02/04 16:37:38;;;;;;;0.60;0.20;;;8.10;1.00;;;;;;5133846;27;20876;-56
2022/02/04 16:40:13;;;;;;;0.90;0.50;;;8.00;1.00;;;;;;5134534;27;20896;-57
2022/02/04 16:42:41;;;;;;;0.40;0.20;;;8.00;1.00;;;;;;5134354;27;20810;-56
2022/02/04 16:45:08;;;;;;;3.22;1.40;;;8.00;1.00;;;;;;5134450;27;20425;-56
2022/02/04 16:47:37;;;;;;;14.20;8.87;;;7.90;1.00;;;;;;5134034;27;20470;-54
2022/02/04 16:50:06;;;;;;;10.55;5.88;;;7.80;1.00;;;;;;5134518;27;20581;-57
2022/02/04 16:52:33;;;;;;;6.43;3.00;;;7.80;1.00;;;;;;5132398;27;20431;-57
2022/02/04 16:55:00;;;;;;;4.65;1.80;;;7.70;1.00;;;;;;5132141;27;20875;-55
2022/02/04 16:57:28;;;;;;;0.70;0.30;;;7.70;1.00;;;;;;5129213;27;20528;-56
2022/02/04 16:59:57;;;;;;;1.90;0.40;;;7.70;1.00;;;;;;5131087;27;20619;-55
2022/02/04 17:02:24;;;;;;;0.55;0.30;;;7.80;1.00;;;;;;5129579;27;20470;-53
2022/02/04 17:04:52;;;;;;;0.40;0.20;;;7.80;1.00;;;;;;5128530;27;20812;-56
2022/02/04 17:07:22;;;;;;;0.50;0.20;;;7.80;1.00;;;;;;5134569;27;20464;-53
2022/02/04 17:09:52;;;;;;;0.40;0.20;;;7.80;1.00;;;;;;5137089;27;20429;-54
2022/02/04 17:12:27;;;;;;;0.40;0.20;;;7.80;1.00;;;;;;5134322;27;20434;-53
2022/02/04 17:14:55;;;;;;;0.50;0.30;;;7.70;1.00;;;;;;5142727;27;20497;-56
2022/02/04 17:17:24;;;;;;;0.40;0.30;;;7.60;1.00;;;;;;5135308;27;20509;-52
2022/02/04 17:20:04;;;;;;;0.47;0.30;;;7.60;1.00;;;;;;5123103;27;20436;-56
2022/02/04 17:22:33;;;;;;;0.90;0.40;;;7.60;1.00;;;;;;5146778;27;20438;-56
2022/02/04 17:25:02;;;;;;;0.60;0.30;;;7.60;1.00;;;;;;5136421;27;20513;-55
2022/02/04 17:27:29;;;;;;;0.47;0.20;;;7.60;1.00;;;;;;5121186;27;20419;-56
2022/02/04 17:29:55;;;;;;;0.43;0.20;;;7.80;1.00;;;;;;5120363;27;20847;-56
2022/02/04 17:32:25;;;;;;;0.40;0.20;;;7.70;1.00;;;;;;5115893;28;20973;-54